createdAt,value
2022-08-22T00:00:18.986Z,0.00
2022-08-22T00:01:18.971Z,0.00
2022-08-22T00:02:19.004Z,0.00
2022-08-22T00:02:44.020Z,0.00
2022-08-22T00:02:45.978Z,0.00
2022-08-22T00:02:52.480Z,0.00
2022-08-22T00:02:52.802Z,0.00
2022-08-22T00:02:53.533Z,0.00
2022-08-22T00:02:56.363Z,0.00
2022-08-22T00:02:56.596Z,0.00
2022-08-22T00:02:59.808Z,0.00
2022-08-22T00:03:04.820Z,0.00
2022-08-22T00:03:09.032Z,0.00
2022-08-22T00:04:18.951Z,0.00
2022-08-22T00:05:18.938Z,0.00
2022-08-22T00:06:18.950Z,0.00
2022-08-22T00:07:18.920Z,0.00
2022-08-22T00:08:18.914Z,0.00
2022-08-22T00:09:18.927Z,0.00
2022-08-22T00:10:25.185Z,0.00
2022-08-22T00:11:18.897Z,0.00
2022-08-22T00:12:18.887Z,0.00
2022-08-22T00:13:18.864Z,0.00
2022-08-22T00:14:18.879Z,0.00
2022-08-22T00:15:42.612Z,0.00
2022-08-22T00:16:18.846Z,0.00
2022-08-22T00:17:18.826Z,0.00
2022-08-22T00:18:18.839Z,0.00
2022-08-22T00:19:18.819Z,0.00
2022-08-22T00:20:18.807Z,0.00
2022-08-22T00:21:18.807Z,0.00
2022-08-22T00:22:18.806Z,0.00
2022-08-22T00:23:18.775Z,0.00
2022-08-22T00:24:18.781Z,0.00
2022-08-22T00:25:24.698Z,0.00
2022-08-22T00:26:18.749Z,0.00
2022-08-22T00:27:18.754Z,0.00
2022-08-22T00:28:18.743Z,0.00
2022-08-22T00:29:18.724Z,0.00
2022-08-22T00:30:18.712Z,0.00
2022-08-22T00:31:18.700Z,0.00
2022-08-22T00:32:18.706Z,0.00
2022-08-22T00:33:18.710Z,0.00
2022-08-22T00:34:18.686Z,0.00
2022-08-22T00:35:18.675Z,0.00
2022-08-22T00:36:18.676Z,0.00
2022-08-22T00:37:18.643Z,0.00
2022-08-22T00:38:18.642Z,0.00
2022-08-22T00:39:18.735Z,0.00
2022-08-22T00:40:18.704Z,0.00
2022-08-22T00:41:18.619Z,0.00
2022-08-22T00:42:32.155Z,0.00
2022-08-22T00:43:18.599Z,0.00
2022-08-22T00:44:18.586Z,0.00
2022-08-22T00:45:18.599Z,0.00
2022-08-22T00:46:18.580Z,0.00
2022-08-22T00:47:18.570Z,0.00
2022-08-22T00:48:18.549Z,0.00
2022-08-22T00:49:18.550Z,0.00
2022-08-22T00:50:18.545Z,0.00
2022-08-22T00:51:18.538Z,0.00
2022-08-22T00:52:18.525Z,0.00
2022-08-22T00:53:18.513Z,0.00
2022-08-22T00:54:18.492Z,0.00
2022-08-22T00:55:18.482Z,0.00
2022-08-22T00:56:18.470Z,0.00
2022-08-22T00:57:18.495Z,0.00
2022-08-22T00:58:18.452Z,0.00
2022-08-22T00:59:23.818Z,0.00
2022-08-22T01:00:18.432Z,0.00
2022-08-22T01:01:18.485Z,0.00
2022-08-22T01:02:18.428Z,0.00
2022-08-22T01:03:18.431Z,0.00
2022-08-22T01:04:18.394Z,0.00
2022-08-22T01:05:18.407Z,0.00
2022-08-22T01:06:18.374Z,0.00
2022-08-22T01:07:18.389Z,0.00
2022-08-22T01:08:18.365Z,0.00
2022-08-22T01:09:18.389Z,0.00
2022-08-22T01:10:18.370Z,0.00
2022-08-22T01:11:18.349Z,0.00
2022-08-22T01:12:18.328Z,0.00
2022-08-22T01:13:18.341Z,0.00
2022-08-22T01:14:18.309Z,0.00
2022-08-22T01:15:18.308Z,0.00
2022-08-22T01:16:18.301Z,0.00
2022-08-22T01:17:18.302Z,0.00
2022-08-22T01:18:18.282Z,0.00
2022-08-22T01:19:18.283Z,0.00
2022-08-22T01:20:18.264Z,0.00
2022-08-22T01:21:20.701Z,0.00
2022-08-22T01:22:18.246Z,0.00
2022-08-22T01:23:18.231Z,0.00
2022-08-22T01:24:18.225Z,0.00
2022-08-22T01:25:18.226Z,0.00
2022-08-22T01:26:19.406Z,0.00
2022-08-22T01:27:18.202Z,0.00
2022-08-22T01:28:18.193Z,0.00
2022-08-22T01:29:18.187Z,0.00
2022-08-22T01:30:18.179Z,0.00
2022-08-22T01:31:18.155Z,0.00
2022-08-22T01:32:18.144Z,0.00
2022-08-22T01:33:18.154Z,0.00
2022-08-22T01:34:18.136Z,0.00
2022-08-22T01:35:18.116Z,0.00
2022-08-22T01:36:18.105Z,0.00
2022-08-22T01:37:18.118Z,0.00
2022-08-22T01:38:18.103Z,0.00
2022-08-22T01:39:18.110Z,0.00
2022-08-22T01:40:18.114Z,0.00
2022-08-22T01:41:18.080Z,0.00
2022-08-22T01:42:18.061Z,0.00
2022-08-22T01:43:18.048Z,0.00
2022-08-22T01:44:18.044Z,0.00
2022-08-22T01:45:18.059Z,0.00
2022-08-22T01:46:20.596Z,0.00
2022-08-22T01:47:18.023Z,0.00
2022-08-22T01:48:18.000Z,0.00
2022-08-22T01:49:18.006Z,0.00
2022-08-22T01:50:17.981Z,0.00
2022-08-22T01:51:17.991Z,0.00
2022-08-22T01:52:19.519Z,0.00
2022-08-22T01:53:17.963Z,0.00
2022-08-22T01:54:17.943Z,0.00
2022-08-22T01:55:17.943Z,0.00
2022-08-22T01:56:17.938Z,0.00
2022-08-22T01:57:17.944Z,0.00
2022-08-22T01:58:17.913Z,0.00
2022-08-22T01:59:17.918Z,0.00
2022-08-22T02:00:17.909Z,0.00
2022-08-22T02:01:17.943Z,0.00
2022-08-22T02:02:17.875Z,0.00
2022-08-22T02:03:17.895Z,0.00
2022-08-22T02:04:17.856Z,0.00
2022-08-22T02:05:17.869Z,0.00
2022-08-22T02:06:17.837Z,0.00
2022-08-22T02:07:17.853Z,0.00
2022-08-22T02:08:17.818Z,0.00
2022-08-22T02:09:17.820Z,0.00
2022-08-22T02:10:17.812Z,0.00
2022-08-22T02:11:17.813Z,0.00
2022-08-22T02:12:21.755Z,0.00
2022-08-22T02:13:17.793Z,0.00
2022-08-22T02:14:17.774Z,0.00
2022-08-22T02:15:17.785Z,0.00
2022-08-22T02:16:17.754Z,0.00
2022-08-22T02:17:17.755Z,0.00
2022-08-22T02:18:17.735Z,0.00
2022-08-22T02:19:17.722Z,0.00
2022-08-22T02:20:17.715Z,0.00
2022-08-22T02:21:17.723Z,0.00
2022-08-22T02:22:17.697Z,0.00
2022-08-22T02:23:17.697Z,0.00
2022-08-22T02:24:17.677Z,0.00
2022-08-22T02:25:17.666Z,0.00
2022-08-22T02:26:17.751Z,0.00
2022-08-22T02:27:17.661Z,0.00
2022-08-22T02:28:17.648Z,0.00
2022-08-22T02:29:17.627Z,0.00
2022-08-22T02:30:17.617Z,0.00
2022-08-22T02:31:17.620Z,0.00
2022-08-22T02:32:17.610Z,0.00
2022-08-22T02:33:17.607Z,0.00
2022-08-22T02:34:17.591Z,0.00
2022-08-22T02:35:17.584Z,0.00
2022-08-22T02:36:17.572Z,0.00
2022-08-22T02:37:17.569Z,0.00
2022-08-22T02:38:17.540Z,0.00
2022-08-22T02:39:17.557Z,0.00
2022-08-22T02:40:17.559Z,0.00
2022-08-22T02:41:17.521Z,0.00
2022-08-22T02:42:17.514Z,0.00
2022-08-22T02:43:17.501Z,0.00
2022-08-22T02:44:17.489Z,0.00
2022-08-22T02:45:17.604Z,0.00
2022-08-22T02:46:17.462Z,0.00
2022-08-22T02:47:17.462Z,0.00
2022-08-22T02:48:17.443Z,0.00
2022-08-22T02:49:17.457Z,0.00
2022-08-22T02:50:17.488Z,0.00
2022-08-22T02:51:17.444Z,0.00
2022-08-22T02:52:17.414Z,0.00
2022-08-22T02:53:17.405Z,0.00
2022-08-22T02:54:17.395Z,0.00
2022-08-22T02:55:17.399Z,0.00
2022-08-22T02:56:17.389Z,0.00
2022-08-22T02:57:17.430Z,0.00
2022-08-22T02:58:17.357Z,0.00
2022-08-22T02:59:17.348Z,0.00
2022-08-22T03:00:31.426Z,0.00
2022-08-22T03:01:17.380Z,0.00
2022-08-22T03:02:17.332Z,0.00
2022-08-22T03:03:17.329Z,0.00
2022-08-22T03:04:17.313Z,0.00
2022-08-22T03:05:17.302Z,0.00
2022-08-22T03:06:17.281Z,0.00
2022-08-22T03:07:17.280Z,0.00
2022-08-22T03:08:17.274Z,0.00
2022-08-22T03:09:17.261Z,0.00
2022-08-22T03:10:17.255Z,0.00
2022-08-22T03:11:17.241Z,0.00
2022-08-22T03:12:17.230Z,0.00
2022-08-22T03:13:17.240Z,0.00
2022-08-22T03:14:17.203Z,0.00
2022-08-22T03:15:17.224Z,0.00
2022-08-22T03:16:17.192Z,0.00
2022-08-22T03:17:17.185Z,0.00
2022-08-22T03:18:17.173Z,0.00
2022-08-22T03:19:18.548Z,0.00
2022-08-22T03:20:17.167Z,0.00
2022-08-22T03:21:17.165Z,0.00
2022-08-22T03:22:17.150Z,0.00
2022-08-22T03:23:17.140Z,0.00
2022-08-22T03:24:17.131Z,0.00
2022-08-22T03:25:17.107Z,0.00
2022-08-22T03:26:17.111Z,0.00
2022-08-22T03:27:32.744Z,0.00
2022-08-22T03:28:17.078Z,0.00
2022-08-22T03:29:17.090Z,0.00
2022-08-22T03:30:17.059Z,0.00
2022-08-22T03:31:17.060Z,0.00
2022-08-22T03:32:17.069Z,0.00
2022-08-22T03:33:17.090Z,0.00
2022-08-22T03:34:17.021Z,0.00
2022-08-22T03:35:17.020Z,0.00
2022-08-22T03:36:17.001Z,0.00
2022-08-22T03:37:17.002Z,0.00
2022-08-22T03:38:16.985Z,0.00
2022-08-22T03:39:17.285Z,0.00
2022-08-22T03:40:17.031Z,0.00
2022-08-22T03:41:16.963Z,0.00
2022-08-22T03:42:16.953Z,0.00
2022-08-22T03:43:16.943Z,0.00
2022-08-22T03:44:16.932Z,0.00
2022-08-22T03:45:16.935Z,0.00
2022-08-22T03:46:18.278Z,0.00
2022-08-22T03:47:16.929Z,0.00
2022-08-22T03:48:16.908Z,0.00
2022-08-22T03:49:16.907Z,0.00
2022-08-22T03:50:16.876Z,0.00
2022-08-22T03:51:16.900Z,0.00
2022-08-22T03:52:16.856Z,0.00
2022-08-22T03:53:19.070Z,0.00
2022-08-22T03:54:16.851Z,0.00
2022-08-22T03:55:16.838Z,0.00
2022-08-22T03:56:16.831Z,0.00
2022-08-22T03:57:16.853Z,0.00
2022-08-22T03:58:27.614Z,0.00
2022-08-22T03:59:16.821Z,0.00
2022-08-22T04:00:16.790Z,0.00
2022-08-22T04:01:16.851Z,0.00
2022-08-22T04:02:26.213Z,0.00
2022-08-22T04:03:16.804Z,4.00
2022-08-22T04:04:16.752Z,4.00
2022-08-22T04:05:16.750Z,0.00
2022-08-22T04:06:16.746Z,0.00
2022-08-22T04:07:31.721Z,4.00
2022-08-22T04:08:16.723Z,4.00
2022-08-22T04:09:16.736Z,4.00
2022-08-22T04:10:16.702Z,8.00
2022-08-22T04:11:16.694Z,8.00
2022-08-22T04:12:16.699Z,8.00
2022-08-22T04:13:16.690Z,8.00
2022-08-22T04:14:16.666Z,8.00
2022-08-22T04:15:16.689Z,12.00
2022-08-22T04:16:16.647Z,12.00
2022-08-22T04:17:16.647Z,16.00
2022-08-22T04:18:16.627Z,20.00
2022-08-22T04:19:16.626Z,24.00
2022-08-22T04:20:16.749Z,24.00
2022-08-22T04:21:16.641Z,28.00
2022-08-22T04:22:16.602Z,32.00
2022-08-22T04:23:16.588Z,36.00
2022-08-22T04:24:16.583Z,44.00
2022-08-22T04:25:16.581Z,48.00
2022-08-22T04:26:16.551Z,64.00
2022-08-22T04:27:16.584Z,76.00
2022-08-22T04:28:16.545Z,96.00
2022-08-22T04:29:16.547Z,116.00
2022-08-22T04:30:16.521Z,136.00
2022-08-22T04:31:16.512Z,152.00
2022-08-22T04:32:16.501Z,168.00
2022-08-22T04:33:16.512Z,184.00
2022-08-22T04:34:16.494Z,200.00
2022-08-22T04:35:16.488Z,212.00
2022-08-22T04:36:16.463Z,228.00
2022-08-22T04:37:16.475Z,244.00
2022-08-22T04:38:16.447Z,260.00
2022-08-22T04:39:16.455Z,272.00
2022-08-22T04:40:16.485Z,288.00
2022-08-22T04:41:16.417Z,296.00
2022-08-22T04:42:32.268Z,312.00
2022-08-22T04:43:16.416Z,320.00
2022-08-22T04:44:16.399Z,332.00
2022-08-22T04:45:16.409Z,344.00
2022-08-22T04:46:16.367Z,356.00
2022-08-22T04:47:16.380Z,368.00
2022-08-22T04:48:16.353Z,380.00
2022-08-22T04:49:16.361Z,392.00
2022-08-22T04:50:16.329Z,404.00
2022-08-22T04:51:16.348Z,412.00
2022-08-22T04:52:16.319Z,424.00
2022-08-22T04:53:16.310Z,436.00
2022-08-22T04:54:16.325Z,448.00
2022-08-22T04:55:16.290Z,456.00
2022-08-22T04:56:16.334Z,468.00
2022-08-22T04:57:16.292Z,480.00
2022-08-22T04:58:16.275Z,496.00
2022-08-22T04:59:16.252Z,504.00
2022-08-22T05:00:16.252Z,520.00
2022-08-22T05:01:16.282Z,528.00
2022-08-22T05:02:16.237Z,540.00
2022-08-22T05:03:16.248Z,552.00
2022-08-22T05:04:16.218Z,564.00
2022-08-22T05:05:16.208Z,580.00
2022-08-22T05:06:16.198Z,592.00
2022-08-22T05:07:16.198Z,604.00
2022-08-22T05:08:16.166Z,616.00
2022-08-22T05:09:16.539Z,624.00
2022-08-22T05:10:16.169Z,632.00
2022-08-22T05:11:16.136Z,644.00
2022-08-22T05:12:16.137Z,652.00
2022-08-22T05:13:16.131Z,668.00
2022-08-22T05:14:16.119Z,676.00
2022-08-22T05:15:16.108Z,688.00
2022-08-22T05:16:16.112Z,692.00
2022-08-22T05:17:17.160Z,708.00
2022-08-22T05:18:16.092Z,720.00
2022-08-22T05:19:17.035Z,732.00
2022-08-22T05:20:16.060Z,740.00
2022-08-22T05:21:16.074Z,752.00
2022-08-22T05:22:16.050Z,764.00
2022-08-22T05:23:17.551Z,776.00
2022-08-22T05:24:16.043Z,788.00
2022-08-22T05:25:16.025Z,796.00
2022-08-22T05:26:16.011Z,808.00
2022-08-22T05:27:16.033Z,820.00
2022-08-22T05:28:16.006Z,832.00
2022-08-22T05:29:15.973Z,844.00
2022-08-22T05:30:15.987Z,860.00
2022-08-22T05:31:15.969Z,880.00
2022-08-22T05:32:15.978Z,900.00
2022-08-22T05:33:15.958Z,920.00
2022-08-22T05:34:15.950Z,936.00
2022-08-22T05:35:15.939Z,952.00
2022-08-22T05:36:15.925Z,968.00
2022-08-22T05:37:15.914Z,988.00
2022-08-22T05:38:15.921Z,1008.00
2022-08-22T05:39:15.920Z,1028.00
2022-08-22T05:40:15.948Z,1048.00
2022-08-22T05:41:15.881Z,1072.00
2022-08-22T05:42:15.878Z,1100.00
2022-08-22T05:43:15.858Z,1128.00
2022-08-22T05:44:15.863Z,1172.00
2022-08-22T05:45:15.857Z,1248.00
2022-08-22T05:46:15.830Z,1344.00
2022-08-22T05:47:15.834Z,1468.00
2022-08-22T05:48:15.824Z,1624.00
2022-08-22T05:49:15.808Z,1780.00
2022-08-22T05:50:15.807Z,1944.00
2022-08-22T05:51:15.802Z,2132.00
2022-08-22T05:52:15.784Z,2336.00
2022-08-22T05:53:15.775Z,2956.00
2022-08-22T05:54:15.761Z,13140.00
2022-08-22T05:55:15.757Z,31680.00
2022-08-22T05:56:15.743Z,37248.00
2022-08-22T05:57:15.751Z,28480.00
2022-08-22T05:58:15.737Z,12916.00
2022-08-22T05:59:15.709Z,6448.00
2022-08-22T06:00:15.705Z,3080.00
2022-08-22T06:01:15.877Z,2908.00
2022-08-22T06:02:15.686Z,2924.00
2022-08-22T06:03:15.697Z,2940.00
2022-08-22T06:04:15.680Z,2944.00
2022-08-22T06:05:15.646Z,2952.00
2022-08-22T06:06:15.647Z,2940.00
2022-08-22T06:07:15.636Z,2924.00
2022-08-22T06:08:15.627Z,2912.00
2022-08-22T06:09:15.804Z,2900.00
2022-08-22T06:10:15.609Z,2824.00
2022-08-22T06:11:15.597Z,2776.00
2022-08-22T06:12:21.706Z,2768.00
2022-08-22T06:13:15.593Z,2796.00
2022-08-22T06:14:15.572Z,2884.00
2022-08-22T06:15:15.582Z,2980.00
2022-08-22T06:16:15.565Z,3076.00
2022-08-22T06:17:15.554Z,3224.00
2022-08-22T06:18:15.578Z,3352.00
2022-08-22T06:19:19.970Z,3452.00
2022-08-22T06:20:15.526Z,3540.00
2022-08-22T06:21:15.516Z,3564.00
2022-08-22T06:22:18.749Z,3632.00
2022-08-22T06:23:15.483Z,3660.00
2022-08-22T06:24:15.483Z,3724.00
2022-08-22T06:25:15.464Z,3776.00
2022-08-22T06:26:20.759Z,3836.00
2022-08-22T06:27:15.466Z,3892.00
2022-08-22T06:28:15.435Z,3928.00
2022-08-22T06:29:15.426Z,3960.00
2022-08-22T06:30:15.441Z,3904.00
2022-08-22T06:31:15.406Z,3668.00
2022-08-22T06:32:15.407Z,3276.00
2022-08-22T06:33:15.397Z,3012.00
2022-08-22T06:34:15.400Z,2988.00
2022-08-22T06:35:15.376Z,2944.00
2022-08-22T06:36:15.522Z,2900.00
2022-08-22T06:37:15.360Z,3032.00
2022-08-22T06:38:15.363Z,3408.00
2022-08-22T06:39:15.353Z,4068.00
2022-08-22T06:40:15.469Z,4588.00
2022-08-22T06:41:15.334Z,4664.00
2022-08-22T06:42:16.960Z,4808.00
2022-08-22T06:43:15.305Z,5136.00
2022-08-22T06:44:15.313Z,5172.00
2022-08-22T06:45:15.302Z,7676.00
2022-08-22T06:46:15.296Z,9024.00
2022-08-22T06:47:15.271Z,7428.00
2022-08-22T06:48:15.264Z,8872.00
2022-08-22T06:49:15.257Z,9324.00
2022-08-22T06:50:15.257Z,6832.00
2022-08-22T06:51:15.258Z,5788.00
2022-08-22T06:52:15.233Z,5484.00
2022-08-22T06:53:15.224Z,5404.00
2022-08-22T06:54:15.213Z,5436.00
2022-08-22T06:55:15.196Z,5504.00
2022-08-22T06:56:15.200Z,5760.00
2022-08-22T06:57:15.468Z,6088.00
2022-08-22T06:58:15.178Z,6280.00
2022-08-22T06:59:15.157Z,6052.00
2022-08-22T07:00:15.158Z,6104.00
2022-08-22T07:01:15.150Z,6232.00
2022-08-22T07:02:15.160Z,6276.00
2022-08-22T07:03:15.150Z,6520.00
2022-08-22T07:04:15.151Z,10624.00
2022-08-22T07:05:15.112Z,16736.00
2022-08-22T07:06:15.100Z,10768.00
2022-08-22T07:07:15.104Z,6656.00
2022-08-22T07:08:15.104Z,6168.00
2022-08-22T07:09:15.082Z,6112.00
2022-08-22T07:10:15.071Z,6104.00
2022-08-22T07:11:15.072Z,6124.00
2022-08-22T07:12:15.073Z,6156.00
2022-08-22T07:13:15.042Z,6196.00
2022-08-22T07:14:15.047Z,6240.00
2022-08-22T07:15:15.047Z,6280.00
2022-08-22T07:16:15.023Z,6372.00
2022-08-22T07:17:15.019Z,6456.00
2022-08-22T07:18:15.018Z,6436.00
2022-08-22T07:19:14.987Z,6560.00
2022-08-22T07:20:14.986Z,6600.00
2022-08-22T07:21:15.106Z,6632.00
2022-08-22T07:22:14.967Z,6648.00
2022-08-22T07:23:14.948Z,6704.00
2022-08-22T07:24:14.962Z,6752.00
2022-08-22T07:25:14.952Z,6792.00
2022-08-22T07:26:14.929Z,6772.00
2022-08-22T07:27:15.914Z,6724.00
2022-08-22T07:28:16.313Z,6688.00
2022-08-22T07:29:14.913Z,6700.00
2022-08-22T07:30:14.911Z,6768.00
2022-08-22T07:31:14.906Z,7576.00
2022-08-22T07:32:14.896Z,10868.00
2022-08-22T07:33:25.786Z,8308.00
2022-08-22T07:34:14.876Z,9132.00
2022-08-22T07:35:14.857Z,10716.00
2022-08-22T07:36:14.843Z,11484.00
2022-08-22T07:37:14.833Z,13352.00
2022-08-22T07:38:14.838Z,16736.00
2022-08-22T07:39:14.836Z,15488.00
2022-08-22T07:40:14.881Z,7924.00
2022-08-22T07:41:14.795Z,6940.00
2022-08-22T07:42:14.809Z,6828.00
2022-08-22T07:43:14.790Z,6908.00
2022-08-22T07:44:14.790Z,7020.00
2022-08-22T07:45:14.779Z,7108.00
2022-08-22T07:46:14.757Z,7432.00
2022-08-22T07:47:14.761Z,10968.00
2022-08-22T07:48:22.650Z,15712.00
2022-08-22T07:49:14.728Z,14436.00
2022-08-22T07:50:14.749Z,10116.00
2022-08-22T07:51:14.720Z,8632.00
2022-08-22T07:52:14.710Z,8336.00
2022-08-22T07:53:15.571Z,8032.00
2022-08-22T07:54:14.704Z,8088.00
2022-08-22T07:55:14.675Z,8400.00
2022-08-22T07:56:14.683Z,8384.00
2022-08-22T07:57:14.672Z,8524.00
2022-08-22T07:58:14.652Z,8808.00
2022-08-22T07:59:14.645Z,9020.00
2022-08-22T08:00:14.633Z,9480.00
2022-08-22T08:01:14.708Z,10224.00
2022-08-22T08:02:14.635Z,13272.00
2022-08-22T08:03:14.614Z,17504.00
2022-08-22T08:04:14.609Z,26848.00
2022-08-22T08:05:14.599Z,38432.00
2022-08-22T08:06:14.604Z,34400.00
2022-08-22T08:07:14.566Z,21120.00
2022-08-22T08:08:15.674Z,16800.00
2022-08-22T08:09:14.591Z,21664.00
2022-08-22T08:10:14.549Z,24320.00
2022-08-22T08:11:14.541Z,26432.00
2022-08-22T08:12:14.550Z,28192.00
2022-08-22T08:13:14.518Z,30560.00
2022-08-22T08:14:14.509Z,24992.00
2022-08-22T08:15:14.520Z,16576.00
2022-08-22T08:16:14.504Z,10488.00
2022-08-22T08:17:14.493Z,9984.00
2022-08-22T08:18:14.494Z,9920.00
2022-08-22T08:19:14.462Z,10080.00
2022-08-22T08:20:14.475Z,12624.00
2022-08-22T08:21:14.486Z,17216.00
2022-08-22T08:22:14.442Z,13888.00
2022-08-22T08:23:14.437Z,10828.00
2022-08-22T08:24:14.424Z,10520.00
2022-08-22T08:25:14.427Z,10536.00
2022-08-22T08:26:14.414Z,10488.00
2022-08-22T08:27:14.405Z,10004.00
2022-08-22T08:28:14.396Z,9908.00
2022-08-22T08:29:14.390Z,9900.00
2022-08-22T08:30:15.618Z,9896.00
2022-08-22T08:31:14.370Z,9876.00
2022-08-22T08:32:14.358Z,9820.00
2022-08-22T08:33:25.808Z,9776.00
2022-08-22T08:34:14.338Z,9820.00
2022-08-22T08:35:14.328Z,9912.00
2022-08-22T08:36:14.319Z,9956.00
2022-08-22T08:37:14.310Z,10052.00
2022-08-22T08:38:14.313Z,10140.00
2022-08-22T08:39:14.430Z,10260.00
2022-08-22T08:40:14.373Z,10428.00
2022-08-22T08:41:14.271Z,10624.00
2022-08-22T08:42:14.284Z,10916.00
2022-08-22T08:43:14.265Z,11288.00
2022-08-22T08:44:14.266Z,11296.00
2022-08-22T08:45:14.263Z,12512.00
2022-08-22T08:46:14.234Z,13544.00
2022-08-22T08:47:14.237Z,17152.00
2022-08-22T08:48:14.213Z,28864.00
2022-08-22T08:49:14.204Z,48640.00
2022-08-22T08:50:14.215Z,52608.00
2022-08-22T08:51:14.208Z,55072.00
2022-08-22T08:52:14.189Z,52992.00
2022-08-22T08:53:14.179Z,44320.00
2022-08-22T08:54:14.166Z,37408.00
2022-08-22T08:55:22.017Z,40704.00
2022-08-22T08:56:19.486Z,49696.00
2022-08-22T08:57:14.158Z,48864.00
2022-08-22T08:58:14.142Z,49216.00
2022-08-22T08:59:14.131Z,41024.00
2022-08-22T09:00:14.120Z,32928.00
2022-08-22T09:01:14.132Z,35168.00
2022-08-22T09:02:20.696Z,32960.00
2022-08-22T09:03:15.817Z,33440.00
2022-08-22T09:04:15.154Z,22176.00
2022-08-22T09:05:14.074Z,16960.00
2022-08-22T09:06:14.061Z,26400.00
2022-08-22T09:07:14.042Z,30048.00
2022-08-22T09:08:14.057Z,18208.00
2022-08-22T09:09:14.057Z,20960.00
2022-08-22T09:10:14.036Z,30048.00
2022-08-22T09:11:14.248Z,32768.00
2022-08-22T09:12:14.026Z,34560.00
2022-08-22T09:13:13.995Z,31072.00
2022-08-22T09:14:14.174Z,20480.00
2022-08-22T09:15:14.412Z,21888.00
2022-08-22T09:16:13.977Z,30912.00
2022-08-22T09:17:13.970Z,33408.00
2022-08-22T09:18:13.970Z,32384.00
2022-08-22T09:19:13.953Z,26752.00
2022-08-22T09:21:13.939Z,12408.00
2022-08-22T09:22:14.518Z,14292.00
2022-08-22T09:23:13.922Z,27936.00
2022-08-22T09:24:14.141Z,24160.00
2022-08-22T09:25:13.902Z,10944.00
2022-08-22T09:26:13.880Z,10608.00
2022-08-22T09:27:13.893Z,11452.00
2022-08-22T09:28:13.900Z,17024.00
2022-08-22T09:29:13.865Z,21312.00
2022-08-22T09:30:13.843Z,13724.00
2022-08-22T09:31:16.975Z,12932.00
2022-08-22T09:32:13.845Z,16320.00
2022-08-22T09:33:13.844Z,15296.00
2022-08-22T09:34:13.818Z,17600.00
2022-08-22T09:35:13.819Z,21280.00
2022-08-22T09:36:13.806Z,19872.00
2022-08-22T09:37:14.092Z,10564.00
2022-08-22T09:38:13.790Z,8060.00
2022-08-22T09:39:13.796Z,7920.00
2022-08-22T09:40:17.238Z,7716.00
2022-08-22T09:41:13.747Z,7336.00
2022-08-22T09:42:13.751Z,7024.00
2022-08-22T09:43:13.741Z,6956.00
2022-08-22T09:44:13.718Z,7412.00
2022-08-22T09:45:13.757Z,14128.00
2022-08-22T09:46:13.717Z,12508.00
2022-08-22T09:47:13.713Z,7100.00
2022-08-22T09:48:13.703Z,7004.00
2022-08-22T09:49:13.681Z,6772.00
2022-08-22T09:50:13.673Z,6240.00
2022-08-22T09:51:31.822Z,6028.00
2022-08-22T09:52:15.602Z,5684.00
2022-08-22T09:53:13.662Z,5580.00
2022-08-22T09:54:13.647Z,5512.00
2022-08-22T09:55:16.009Z,5436.00
2022-08-22T09:56:15.715Z,5372.00
2022-08-22T09:57:14.042Z,5292.00
2022-08-22T09:58:13.610Z,5244.00
2022-08-22T09:59:13.595Z,5204.00
2022-08-22T10:00:13.594Z,5140.00
2022-08-22T10:01:13.640Z,5080.00
2022-08-22T10:02:15.801Z,5024.00
2022-08-22T10:03:13.567Z,4976.00
2022-08-22T10:04:13.547Z,4920.00
2022-08-22T10:05:13.553Z,4872.00
2022-08-22T10:06:13.527Z,4828.00
2022-08-22T10:07:13.527Z,4776.00
2022-08-22T10:08:13.538Z,4740.00
2022-08-22T10:09:13.520Z,4672.00
2022-08-22T10:10:13.504Z,4632.00
2022-08-22T10:11:13.490Z,4600.00
2022-08-22T10:12:13.482Z,4572.00
2022-08-22T10:13:13.485Z,4540.00
2022-08-22T10:14:13.462Z,4500.00
2022-08-22T10:15:13.483Z,4476.00
2022-08-22T10:16:13.440Z,4456.00
2022-08-22T10:17:13.447Z,4432.00
2022-08-22T10:18:13.424Z,4396.00
2022-08-22T10:19:13.425Z,4368.00
2022-08-22T10:20:13.404Z,4320.00
2022-08-22T10:21:13.426Z,4292.00
2022-08-22T10:22:13.386Z,4268.00
2022-08-22T10:23:13.399Z,4252.00
2022-08-22T10:24:13.367Z,4304.00
2022-08-22T10:25:13.368Z,4248.00
2022-08-22T10:26:13.351Z,4156.00
2022-08-22T10:27:13.373Z,4128.00
2022-08-22T10:28:13.377Z,4100.00
2022-08-22T10:29:13.339Z,4076.00
2022-08-22T10:30:13.458Z,4052.00
2022-08-22T10:31:13.310Z,4024.00
2022-08-22T10:32:14.611Z,4000.00
2022-08-22T10:33:13.312Z,3964.00
2022-08-22T10:34:13.295Z,3964.00
2022-08-22T10:35:13.293Z,3956.00
2022-08-22T10:36:13.263Z,3940.00
2022-08-22T10:37:13.262Z,3920.00
2022-08-22T10:38:13.253Z,3896.00
2022-08-22T10:39:13.264Z,3876.00
2022-08-22T10:40:13.277Z,3852.00
2022-08-22T10:41:13.238Z,3832.00
2022-08-22T10:42:13.215Z,3796.00
2022-08-22T10:43:13.208Z,3784.00
2022-08-22T10:44:13.195Z,3796.00
2022-08-22T10:45:13.228Z,3736.00
2022-08-22T10:46:13.843Z,3700.00
2022-08-22T10:47:13.176Z,3692.00
2022-08-22T10:48:13.158Z,3668.00
2022-08-22T10:49:17.907Z,3660.00
2022-08-22T10:50:13.149Z,3636.00
2022-08-22T10:51:13.171Z,3612.00
2022-08-22T10:52:15.638Z,3592.00
2022-08-22T10:53:13.121Z,3552.00
2022-08-22T10:54:13.124Z,3544.00
2022-08-22T10:55:13.114Z,3512.00
2022-08-22T10:56:13.105Z,3488.00
2022-08-22T10:57:13.115Z,3460.00
2022-08-22T10:58:13.078Z,3476.00
2022-08-22T10:59:13.086Z,3468.00
2022-08-22T11:00:13.070Z,3440.00
2022-08-22T11:01:37.515Z,3436.00
2022-08-22T11:02:13.034Z,3384.00
2022-08-22T11:03:18.709Z,3352.00
2022-08-22T11:04:13.037Z,3340.00
2022-08-22T11:05:13.029Z,3340.00
2022-08-22T11:06:13.019Z,3324.00
2022-08-22T11:07:12.997Z,3296.00
2022-08-22T11:08:13.001Z,3312.00
2022-08-22T11:09:13.010Z,3316.00
2022-08-22T11:10:12.981Z,3284.00
2022-08-22T11:11:12.982Z,3256.00
2022-08-22T11:12:12.969Z,3264.00
2022-08-22T11:13:12.962Z,3228.00
2022-08-22T11:14:12.943Z,3204.00
2022-08-22T11:15:12.945Z,3172.00
2022-08-22T11:16:12.919Z,3148.00
2022-08-22T11:17:30.790Z,3140.00
2022-08-22T11:18:13.276Z,3124.00
2022-08-22T11:19:15.652Z,3108.00
2022-08-22T11:20:12.896Z,3116.00
2022-08-22T11:21:12.902Z,3092.00
2022-08-22T11:22:12.877Z,3056.00
2022-08-22T11:23:12.854Z,3052.00
2022-08-22T11:24:17.162Z,3056.00
2022-08-22T11:25:12.846Z,3064.00
2022-08-22T11:26:12.825Z,3100.00
2022-08-22T11:27:13.241Z,3032.00
2022-08-22T11:28:12.820Z,3036.00
2022-08-22T11:29:13.929Z,3032.00
2022-08-22T11:30:18.228Z,3072.00
2022-08-22T11:31:12.831Z,2996.00
2022-08-22T11:32:12.781Z,2952.00
2022-08-22T11:33:13.794Z,2940.00
2022-08-22T11:34:12.759Z,2940.00
2022-08-22T11:35:12.763Z,2880.00
2022-08-22T11:36:12.810Z,2852.00
2022-08-22T11:37:12.745Z,2820.00
2022-08-22T11:38:12.736Z,2800.00
2022-08-22T11:39:18.351Z,2780.00
2022-08-22T11:40:12.777Z,2760.00
2022-08-22T11:41:12.703Z,2736.00
2022-08-22T11:42:12.684Z,2744.00
2022-08-22T11:43:18.260Z,2736.00
2022-08-22T11:44:12.686Z,2736.00
2022-08-22T11:45:16.001Z,2732.00
2022-08-22T11:46:12.666Z,2708.00
2022-08-22T11:47:12.660Z,2684.00
2022-08-22T11:48:12.649Z,2680.00
2022-08-22T11:49:12.647Z,2692.00
2022-08-22T11:50:14.107Z,2700.00
2022-08-22T11:51:13.327Z,2684.00
2022-08-22T11:52:12.598Z,2656.00
2022-08-22T11:53:12.610Z,2624.00
2022-08-22T11:54:12.594Z,2584.00
2022-08-22T11:55:12.594Z,2556.00
2022-08-22T11:56:12.570Z,2532.00
2022-08-22T11:57:12.593Z,2532.00
2022-08-22T11:58:12.564Z,2532.00
2022-08-22T11:59:12.563Z,2520.00
2022-08-22T12:00:12.531Z,2524.00
2022-08-22T12:01:17.457Z,2508.00
2022-08-22T12:02:12.553Z,2492.00
2022-08-22T12:03:12.533Z,2468.00
2022-08-22T12:04:12.763Z,2452.00
2022-08-22T12:05:19.494Z,2444.00
2022-08-22T12:06:12.491Z,2428.00
2022-08-22T12:07:12.474Z,2400.00
2022-08-22T12:08:12.455Z,2388.00
2022-08-22T12:09:12.478Z,2372.00
2022-08-22T12:10:13.758Z,2360.00
2022-08-22T12:11:12.437Z,2352.00
2022-08-22T12:12:12.440Z,2344.00
2022-08-22T12:13:12.437Z,2328.00
2022-08-22T12:14:12.407Z,2316.00
2022-08-22T12:15:12.417Z,2312.00
2022-08-22T12:16:12.389Z,2288.00
2022-08-22T12:17:13.607Z,2284.00
2022-08-22T12:18:15.336Z,2264.00
2022-08-22T12:19:12.372Z,2236.00
2022-08-22T12:20:16.745Z,2220.00
2022-08-22T12:21:12.371Z,2232.00